Terminal Aerodrome Forecast
Issued by NWS

Current Version | Previous Version | Text Only | Print | Product List | Glossary On
Versions: 1 2 3 4 5 6 7 8 9 10 11 12 13 14 15 16 17 18 19 20 21 22 23 24 25 26 27 28
091
FTUS41 KOKX 022345
TAFTEB
TAF
KTEB 022345Z 0300/0324 25005KT P6SM SCT015 BKN250
     FM030200 VRB03KT 6SM BR OVC015
     FM030400 VRB04KT 3SM RA BR BKN007 OVC015
     FM030900 03006KT 2SM RA BR OVC005
     FM031300 03005KT 4SM -SHRA BR OVC005
     FM031600 02007KT P6SM SCT007 OVC012
     FM032100 13006KT 6SM BR BKN015=

USA.gov is the U.S. government's official web portal to all federal, state and local government web resources and services.